.
WxDataArchive / Data Records for 2006-08-07
2006-08-06 August 2006 2006-08-08

Data Records for Monday, 07 August 2006

Time	Temp	Chill	HIndex	Humid	Dewpt	 Wind 	HiWind	WindDir	Rain 	Barom 
-----	----	-----	------	-----	-----	------	------	-------	-----	----- 
00:00	75.3	75.3	76.2	78	68.0	0	0	---	0.00	29.993 
00:05	75.3	75.3	76.2	78	68.0	0	0	---	0.00	29.993 
00:10	75.3	75.3	76.1	79	68.3	0	0	---	0.00	29.993 
00:15	75.3	75.3	76.1	79	68.3	0	0	---	0.00	29.992 
00:20	75.1	75.1	75.8	79	68.1	0	0	---	0.00	29.992 
00:25	75.1	75.1	75.7	80	68.5	0	0	---	0.00	29.992 
00:30	74.9	74.9	74.9	81	68.7	0	0	---	0.00	29.992 
00:35	74.7	74.7	74.7	81	68.5	0	0	---	0.00	29.992 
00:40	74.6	74.6	74.6	81	68.4	0	0	---	0.00	29.992 
00:45	74.6	74.6	74.6	82	68.7	0	0	---	0.00	29.990 
00:50	74.4	74.4	74.4	81	68.2	0	0	---	0.00	29.990 
00:55	74.4	74.4	74.4	82	68.5	0	0	---	0.00	29.990 
01:00	74.4	74.4	74.4	82	68.5	0	0	---	0.00	29.989 
01:05	74.4	74.4	74.4	82	68.5	0	0	---	0.00	29.989 
01:10	74.4	74.4	74.4	82	68.5	0	0	---	0.00	29.989 
01:15	74.4	74.4	74.4	82	68.5	0	0	---	0.00	29.988 
01:20	74.2	74.2	74.2	82	68.3	0	0	---	0.00	29.988 
01:25	74.2	74.2	74.2	82	68.3	0	0	---	0.00	29.988 
01:30	74.0	74.0	74.0	82	68.1	0	0	---	0.00	29.988 
01:35	74.0	74.0	74.0	82	68.1	0	0	---	0.00	29.988 
01:40	74.0	74.0	74.0	82	68.1	0	0	---	0.00	29.988 
01:45	74.0	74.0	74.0	82	68.1	0	0	---	0.00	29.980 
01:50	74.2	74.2	74.2	82	68.3	0	0	---	0.00	29.980 
01:55	74.2	74.2	74.2	82	68.3	0	0	---	0.00	29.980 
02:00	74.4	74.4	74.4	82	68.5	0	0	---	0.00	29.977 
02:05	74.4	74.4	74.4	81	68.2	0	0	---	0.00	29.977 
02:10	74.6	74.6	74.6	81	68.4	0	1	270	0.00	29.977 
02:15	74.7	74.7	74.7	80	68.1	0	0	---	0.00	29.975 
02:20	74.7	74.7	74.7	80	68.1	0	0	---	0.00	29.975 
02:25	74.6	74.6	74.6	79	67.6	0	0	---	0.00	29.975 
02:30	74.6	74.6	74.6	79	67.6	0	1	270	0.00	29.974 
02:35	74.6	74.6	74.6	80	68.0	0	0	---	0.00	29.974 
02:40	74.4	74.4	74.4	80	67.8	0	0	---	0.00	29.974 
02:45	74.2	74.2	74.2	80	67.6	0	1	270	0.00	29.968 
02:50	74.0	74.0	74.0	80	67.4	0	1	270	0.00	29.968 
02:55	73.9	73.9	73.9	81	67.7	0	0	---	0.00	29.968 
03:00	73.7	73.7	73.7	81	67.5	0	0	---	0.00	29.966 
03:05	73.5	73.5	73.5	81	67.3	0	0	---	0.00	29.966 
03:10	73.2	73.2	73.2	82	67.4	0	0	---	0.00	29.966 
03:15	73.0	73.0	73.0	82	67.2	0	0	---	0.00	29.967 
03:20	73.0	73.0	73.0	83	67.5	0	0	---	0.00	29.967 
03:25	72.8	72.8	72.8	83	67.3	0	1	270	0.00	29.967 
03:30	72.7	72.7	72.7	83	67.2	0	0	---	0.00	29.964 
03:35	72.5	72.5	72.5	84	67.4	0	0	---	0.00	29.964 
03:40	72.3	72.3	72.3	84	67.2	0	0	---	0.00	29.964 
03:45	72.3	72.3	72.3	84	67.2	0	0	---	0.00	29.969 
03:50	72.1	72.1	72.1	84	67.0	0	0	---	0.00	29.969 
03:55	72.0	72.0	72.0	85	67.2	0	0	---	0.00	29.969 
04:00	71.8	71.8	71.8	85	67.0	0	0	---	0.00	29.970 
04:05	71.6	71.6	71.6	85	66.8	0	0	---	0.00	29.970 
04:10	71.6	71.6	71.6	86	67.2	0	0	---	0.00	29.970 
04:15	71.5	71.5	71.5	86	67.1	0	1	270	0.00	29.971 
04:20	71.5	71.5	71.5	86	67.1	0	1	270	0.00	29.971 
04:25	71.5	71.5	71.5	86	67.1	0	1	270	0.00	29.971 
04:30	71.6	71.6	71.6	86	67.2	0	1	270	0.00	29.975 
04:35	71.6	71.6	71.6	85	66.8	0	1	270	0.00	29.975 
04:40	71.8	71.8	71.8	85	67.0	0	0	---	0.00	29.975 
04:45	71.6	71.6	71.6	85	66.8	0	1	270	0.00	29.978 
04:50	71.6	71.6	71.6	85	66.8	0	0	---	0.00	29.978 
04:55	71.5	71.5	71.5	85	66.7	0	0	---	0.00	29.978 
05:00	71.3	71.3	71.3	86	66.9	0	0	---	0.00	29.979 
05:05	71.1	71.1	71.1	86	66.7	0	0	---	0.00	29.979 
05:10	70.9	70.9	70.9	86	66.5	0	0	---	0.00	29.979 
05:15	70.9	70.9	70.9	87	66.8	0	1	270	0.00	29.981 
05:20	71.1	71.1	71.1	86	66.7	0	1	270	0.00	29.981 
05:25	71.3	71.3	71.3	86	66.9	0	1	270	0.00	29.981 
05:30	71.8	71.8	71.8	85	67.0	0	1	270	0.00	29.979 
05:35	71.8	71.8	71.8	85	67.0	0	1	270	0.00	29.979 
05:40	72.0	72.0	72.0	84	66.9	0	1	270	0.00	29.979 
05:45	72.0	72.0	72.0	84	66.9	0	0	---	0.00	29.978 
05:50	71.8	71.8	71.8	85	67.0	0	1	270	0.00	29.978 
05:55	71.6	71.6	71.6	85	66.8	0	0	---	0.00	29.978 
06:00	71.5	71.5	71.5	85	66.7	0	0	---	0.00	29.978 
06:05	71.3	71.3	71.3	85	66.5	0	0	---	0.00	29.978 
06:10	71.1	71.1	71.1	86	66.7	0	0	---	0.00	29.978 
06:15	70.9	70.9	70.9	86	66.5	0	1	270	0.00	29.980 
06:20	70.9	70.9	70.9	87	66.8	0	1	270	0.00	29.980 
06:25	70.9	70.9	70.9	87	66.8	0	1	270	0.00	29.980 
06:30	70.9	70.9	70.9	87	66.8	0	1	270	0.00	29.982 
06:35	71.1	71.1	71.1	86	66.7	0	1	270	0.00	29.982 
06:40	70.9	70.9	70.9	87	66.8	0	0	---	0.00	29.982 
06:45	70.9	70.9	70.9	87	66.8	0	1	270	0.00	29.983 
06:50	70.9	70.9	70.9	87	66.8	0	2	270	0.00	29.983 
06:55	70.9	70.9	70.9	87	66.8	0	1	270	0.00	29.983 
07:00	71.1	71.1	71.1	87	67.0	0	1	270	0.00	29.983 
07:05	71.1	71.1	71.1	87	67.0	0	1	270	0.00	29.983 
07:10	71.3	71.3	71.3	86	66.9	0	1	270	0.00	29.983 
07:15	71.3	71.3	71.3	86	66.9	0	1	270	0.00	29.989 
07:20	71.6	71.6	71.6	86	67.2	0	1	270	0.00	29.989 
07:25	71.8	71.8	71.8	85	67.0	1	2	270	0.00	29.989 
07:30	72.1	72.1	72.1	84	67.0	0	1	270	0.00	29.994 
07:35	72.5	72.5	72.5	84	67.4	0	1	270	0.00	29.994 
07:40	72.8	72.8	72.8	83	67.3	0	1	270	0.00	29.994 
07:45	73.2	73.2	73.2	83	67.7	0	2	270	0.00	29.997 
07:50	73.5	73.5	73.5	82	67.7	0	2	270	0.00	29.997 
07:55	73.9	73.9	73.9	81	67.7	0	1	270	0.00	29.997 
08:00	74.2	74.2	74.2	80	67.6	1	3	270	0.00	30.002 
08:05	74.6	74.6	74.6	79	67.6	0	2	270	0.00	30.002 
08:10	75.1	75.1	76.0	78	67.8	0	2	270	0.00	30.002 
08:15	75.4	75.4	76.3	78	68.0	0	1	270	0.00	30.009 
08:20	75.8	75.8	77.0	77	68.1	0	2	270	0.00	30.009 
08:25	76.1	76.1	77.5	75	67.6	1	3	270	0.00	30.009 
08:30	76.5	76.5	78.1	74	67.6	1	3	248	0.00	30.007 
08:35	76.7	76.7	78.3	74	67.8	1	3	248	0.00	30.007 
08:40	76.8	76.8	78.5	73	67.5	1	4	270	0.00	30.007 
08:45	77.2	77.2	79.0	73	67.9	1	3	225	0.00	30.010 
08:50	77.6	77.6	79.5	72	67.8	1	3	248	0.00	30.010 
08:55	77.7	77.7	79.7	73	68.3	1	2	248	0.00	30.010 
09:00	78.1	78.1	80.2	72	68.3	1	4	248	0.00	30.019 
09:05	78.5	78.5	80.8	71	68.3	1	3	248	0.00	30.019 
09:10	78.8	78.8	81.1	70	68.2	1	4	248	0.00	30.019 
09:15	79.0	79.0	81.3	69	67.9	2	3	248	0.00	30.017 
09:20	79.2	79.2	81.5	68	67.7	2	5	248	0.00	30.017 
09:25	79.4	79.4	81.9	69	68.3	1	3	292	0.00	30.017 
09:30	79.2	79.2	81.5	67	67.3	2	4	315	0.00	30.014 
09:35	79.2	79.2	81.5	68	67.7	2	4	270	0.00	30.014 
09:40	79.4	79.4	81.9	69	68.3	1	4	270	0.00	30.014 
09:45	79.9	79.9	82.5	67	67.9	1	3	270	0.00	30.011 
09:50	80.1	80.1	82.7	67	68.1	1	3	248	0.00	30.011 
09:55	79.9	79.9	82.5	67	67.9	1	3	292	0.00	30.011 
10:00	79.9	79.9	82.5	67	67.9	1	3	270	0.00	30.009 
10:05	80.3	80.3	83.2	68	68.8	1	2	248	0.00	30.009 
10:10	80.5	80.5	83.3	67	68.5	1	2	248	0.00	30.009 
10:15	80.5	80.5	83.2	66	68.1	1	2	248	0.00	30.010 
10:20	80.5	80.5	83.2	66	68.1	1	4	248	0.00	30.010 
10:25	81.1	81.1	84.0	65	68.2	1	2	270	0.00	30.010 
10:30	81.4	81.4	84.6	66	68.9	1	2	270	0.00	30.010 
10:35	81.4	81.4	84.4	65	68.5	0	2	270	0.00	30.010 
10:40	81.4	81.4	84.4	65	68.5	0	2	270	0.00	30.010 
10:45	81.6	81.6	84.9	66	69.1	1	2	292	0.00	30.008 
10:50	82.0	82.0	85.4	65	69.0	1	2	292	0.00	30.008 
10:55	81.6	81.6	84.7	65	68.7	1	2	315	0.00	30.008 
11:00	81.4	81.4	84.8	67	69.4	0	1	315	0.00	30.013 
11:05	81.6	81.6	85.3	68	70.0	0	1	315	0.00	30.013 
11:10	81.8	81.8	85.7	68	70.2	0	1	315	0.00	30.013 
11:15	82.2	82.2	85.9	66	69.7	1	6	248	0.00	30.019 
11:20	82.4	82.4	86.3	66	69.9	1	3	248	0.00	30.019 
11:25	82.6	82.6	86.4	65	69.6	1	2	270	0.00	30.019 
11:30	82.6	82.6	86.6	66	70.1	1	3	292	0.00	30.022 
11:35	82.8	82.8	87.0	66	70.3	1	2	315	0.00	30.022 
11:40	83.2	83.2	88.2	68	71.5	0	2	315	0.00	30.022 
11:45	83.6	83.6	88.2	65	70.6	1	2	315	0.00	30.024 
11:50	83.6	83.6	88.2	65	70.6	1	3	338	0.00	30.024 
11:55	83.4	83.4	87.8	65	70.4	0	2	248	0.00	30.024 
12:00	83.2	83.2	88.0	67	71.1	1	2	248	0.00	30.032 
12:05	83.2	83.2	88.5	69	71.9	0	2	270	0.00	30.032 
12:10	83.4	83.4	88.4	67	71.3	1	2	292	0.00	30.032 
12:15	83.6	83.6	88.5	66	71.0	2	4	292	0.00	30.041 
12:20	83.8	83.8	89.1	67	71.6	1	3	248	0.00	30.041 
12:25	84.1	84.1	89.1	65	71.0	1	2	248	0.00	30.041 
12:30	84.5	84.5	89.6	64	71.0	2	3	270	0.00	30.040 
12:35	84.7	84.7	90.6	66	72.1	1	2	270	0.00	30.040 
12:40	85.1	85.1	90.8	64	71.5	1	3	270	0.00	30.040 
12:45	85.1	85.1	90.8	64	71.5	2	3	248	0.00	30.039 
12:50	84.9	84.9	90.4	64	71.3	1	3	338	0.00	30.039 
12:55	84.3	84.3	89.8	66	71.7	1	3	338	0.00	30.039 
13:00	84.0	84.0	89.2	66	71.4	1	3	315	0.00	30.043 
13:05	83.6	83.6	88.7	67	71.5	1	2	315	0.00	30.043 
13:10	83.4	83.4	88.4	67	71.3	1	2	0	0.00	30.043 
13:15	83.4	83.4	88.6	68	71.7	1	3	338	0.00	30.056 
13:20	83.2	83.2	88.2	68	71.5	1	3	270	0.00	30.056 
13:25	83.2	83.2	88.5	69	71.9	2	5	292	0.00	30.056 
13:30	83.0	83.0	88.1	69	71.8	1	3	292	0.00	30.056 
13:35	82.8	82.8	88.0	70	72.0	1	3	248	0.00	30.056 
13:40	82.4	82.4	87.2	70	71.6	1	2	315	0.00	30.056 
13:45	82.6	82.6	87.8	71	72.2	1	2	315	0.00	30.056 
13:50	82.8	82.8	88.0	70	72.0	2	4	315	0.00	30.056 
13:55	82.8	82.8	87.7	69	71.6	2	6	270	0.00	30.056 
14:00	82.6	82.6	87.6	70	71.8	2	5	270	0.00	30.058 
14:05	82.6	82.6	87.8	71	72.2	2	4	270	0.00	30.058 
14:10	82.4	82.4	87.2	70	71.6	2	4	270	0.00	30.058 
14:15	82.4	82.4	87.2	70	71.6	2	4	248	0.00	30.047 
14:20	82.4	82.4	87.2	70	71.6	2	4	248	0.00	30.047 
14:25	82.6	82.6	87.8	71	72.2	2	4	248	0.00	30.047 
14:30	82.8	82.8	88.2	71	72.4	2	3	270	0.00	30.041 
14:35	82.8	82.8	87.7	69	71.6	1	3	270	0.00	30.041 
14:40	83.0	83.0	88.7	71	72.6	1	2	270	0.00	30.041 
14:45	83.2	83.2	88.8	70	72.4	1	3	270	0.00	30.027 
14:50	83.0	83.0	88.4	70	72.2	1	3	292	0.00	30.027 
14:55	82.8	82.8	88.0	70	72.0	0	2	292	0.00	30.027 
15:00	82.6	82.6	87.6	70	71.8	1	2	292	0.00	30.028 
15:05	82.6	82.6	88.4	73	73.0	1	2	292	0.00	30.028 
15:10	82.8	82.8	88.5	72	72.8	1	2	292	0.00	30.028 
15:15	82.6	82.6	87.8	71	72.2	0	1	315	0.00	30.027 
15:20	82.4	82.4	87.4	71	72.0	1	2	315	0.00	30.027 
15:25	82.2	82.2	87.3	72	72.2	1	3	315	0.00	30.027 
15:30	82.2	82.2	87.5	73	72.7	2	3	248	0.00	30.037 
15:35	82.4	82.4	87.9	73	72.9	1	2	248	0.00	30.037 
15:40	82.6	82.6	88.4	73	73.0	1	4	248	0.00	30.037 
15:45	82.6	82.6	88.4	73	73.0	1	3	292	0.00	30.027 
15:50	82.6	82.6	88.1	72	72.6	1	3	248	0.00	30.027 
15:55	82.6	82.6	88.4	73	73.0	1	3	270	0.00	30.027 
16:00	82.6	82.6	88.1	72	72.6	1	3	248	0.00	30.025 
16:05	82.8	82.8	88.8	73	73.2	1	3	270	0.00	30.025 
16:10	82.8	82.8	88.8	73	73.2	2	3	270	0.00	30.025 
16:15	82.8	82.8	88.5	72	72.8	2	4	270	0.00	30.026 
16:20	83.2	83.2	89.7	73	73.6	2	4	248	0.00	30.026 
16:25	83.6	83.6	90.2	72	73.6	1	4	248	0.00	30.026 
16:30	83.8	83.8	90.4	71	73.4	1	3	315	0.00	30.021 
16:35	83.8	83.8	89.7	69	72.5	1	3	315	0.00	30.021 
16:40	84.0	84.0	90.5	70	73.1	1	3	292	0.00	30.021 
16:45	84.1	84.1	90.4	69	72.8	1	4	315	0.00	30.010 
16:50	83.8	83.8	89.7	69	72.5	1	2	315	0.00	30.010 
16:55	83.6	83.6	89.3	69	72.3	1	4	338	0.00	30.010 
17:00	83.8	83.8	89.4	68	72.1	1	3	270	0.00	30.011 
17:05	84.1	84.1	89.7	67	71.9	1	3	270	0.00	30.011 
17:10	84.3	84.3	90.1	67	72.1	1	2	292	0.00	30.011 
17:15	84.0	84.0	89.2	66	71.4	2	5	315	0.00	30.010 
17:20	84.0	84.0	89.2	66	71.4	2	4	270	0.00	30.010 
17:25	84.0	84.0	88.6	64	70.5	1	3	248	0.00	30.010 
17:30	84.0	84.0	89.2	66	71.4	1	3	315	0.00	30.011 
17:35	83.8	83.8	88.6	65	70.7	1	4	270	0.00	30.011 
17:40	83.4	83.4	87.8	65	70.4	1	3	270	0.00	30.011 
17:45	83.4	83.4	87.8	65	70.4	1	2	338	0.00	30.016 
17:50	84.0	84.0	88.9	65	70.9	1	2	338	0.00	30.016 
17:55	84.0	84.0	88.4	63	70.0	1	4	292	0.00	30.016 
18:00	83.8	83.8	88.6	65	70.7	0	3	292	0.00	30.018 
18:05	83.6	83.6	88.5	66	71.0	1	2	315	0.00	30.018 
18:10	83.2	83.2	87.7	66	70.6	1	3	315	0.00	30.018 
18:15	83.0	83.0	87.1	65	70.0	1	3	292	0.00	30.018 
18:20	83.2	83.2	86.7	62	68.8	1	3	338	0.00	30.018 
18:25	83.0	83.0	86.1	61	68.1	1	3	338	0.00	30.018 
18:30	83.2	83.2	86.0	59	67.4	1	3	315	0.00	30.014 
18:35	83.2	83.2	85.6	57	66.4	1	2	292	0.00	30.014 
18:40	83.2	83.2	86.2	60	67.8	1	3	315	0.00	30.014 
18:45	83.2	83.2	86.0	59	67.4	1	3	292	0.00	30.015 
18:50	83.2	83.2	85.8	58	66.9	1	3	292	0.00	30.015 
18:55	83.0	83.0	85.9	60	67.7	1	3	0	0.00	30.015 
19:00	83.0	83.0	85.9	60	67.7	1	3	0	0.00	30.016 
19:05	82.8	82.8	85.6	60	67.5	1	2	338	0.00	30.016 
19:10	82.8	82.8	85.6	60	67.5	1	2	315	0.00	30.016 
19:15	82.8	82.8	85.4	59	67.0	0	2	315	0.00	30.021 
19:20	82.6	82.6	85.1	59	66.8	0	1	315	0.00	30.021 
19:25	82.0	82.0	83.9	57	65.2	0	2	315	0.00	30.021 
19:30	81.6	81.6	82.5	51	61.7	1	4	270	0.00	30.027 
19:35	81.4	81.4	82.5	53	62.6	0	2	270	0.00	30.027 
19:40	81.2	81.2	82.1	51	61.3	0	2	292	0.00	30.027 
19:45	80.9	80.9	81.6	50	60.5	0	1	292	0.00	30.032 
19:50	80.7	80.7	81.4	50	60.3	0	2	292	0.00	30.032 
19:55	80.5	80.5	81.2	49	59.6	0	1	292	0.00	30.032 
20:00	80.3	80.3	81.0	49	59.4	0	2	292	0.00	30.038 
20:05	80.1	80.1	81.0	51	60.3	0	1	292	0.00	30.038 
20:10	79.8	79.8	80.8	52	60.6	0	0	---	0.00	30.038 
20:15	79.6	79.6	80.6	52	60.4	0	1	315	0.00	30.041 
20:20	79.2	79.2	80.4	53	60.6	0	1	315	0.00	30.041 
20:25	78.8	78.8	80.1	54	60.7	0	0	---	0.00	30.041 
20:30	78.6	78.6	80.0	55	61.1	0	1	315	0.00	30.044 
20:35	78.3	78.3	79.7	55	60.8	0	1	315	0.00	30.044 
20:40	77.9	77.9	79.4	56	60.9	0	0	---	0.00	30.044 
20:45	77.6	77.6	79.2	57	61.1	0	0	---	0.00	30.042 
20:50	77.2	77.2	78.9	57	60.8	0	0	---	0.00	30.042 
20:55	76.7	76.7	78.5	58	60.8	0	0	---	0.00	30.042 
21:00	76.3	76.3	78.2	60	61.4	0	0	---	0.00	30.044 
21:05	75.8	75.8	77.9	60	60.9	0	0	---	0.00	30.044 
21:10	75.6	75.6	77.7	61	61.2	0	0	---	0.00	30.044 
21:15	75.4	75.4	77.6	61	61.0	0	0	---	0.00	30.044 
21:20	75.3	75.3	77.5	62	61.4	0	0	---	0.00	30.044 
21:25	75.1	75.1	77.3	62	61.2	0	0	---	0.00	30.044 
21:30	74.9	74.9	74.9	63	61.4	0	0	---	0.00	30.060 
21:35	74.7	74.7	74.7	64	61.7	0	0	---	0.00	30.060 
21:40	74.4	74.4	74.4	65	61.8	0	0	---	0.00	30.060 
21:45	74.0	74.0	74.0	66	61.9	0	0	---	0.00	30.063 
21:50	73.7	73.7	73.7	67	62.0	0	1	315	0.00	30.063 
21:55	73.3	73.3	73.3	68	62.1	0	0	---	0.00	30.063 
22:00	73.2	73.2	73.2	68	62.0	0	0	---	0.00	30.070 
22:05	72.8	72.8	72.8	69	62.0	0	0	---	0.00	30.070 
22:10	72.5	72.5	72.5	69	61.7	0	0	---	0.00	30.070 
22:15	72.5	72.5	72.5	69	61.7	0	0	---	0.00	30.075 
22:20	72.3	72.3	72.3	69	61.5	0	0	---	0.00	30.075 
22:25	72.1	72.1	72.1	69	61.4	0	0	---	0.00	30.075 
22:30	72.0	72.0	72.0	69	61.3	0	0	---	0.00	30.080 
22:35	72.0	72.0	72.0	69	61.3	0	2	315	0.00	30.080 
22:40	72.0	72.0	72.0	68	60.8	0	1	315	0.00	30.080 
22:45	72.0	72.0	72.0	67	60.4	0	1	315	0.00	30.088 
22:50	71.8	71.8	71.8	67	60.2	0	1	315	0.00	30.088 
22:55	71.6	71.6	71.6	67	60.0	0	0	---	0.00	30.088 
23:00	71.3	71.3	71.3	68	60.2	0	1	315	0.00	30.086 
23:05	71.1	71.1	71.1	67	59.6	0	0	---	0.00	30.086 
23:10	71.1	71.1	71.1	68	60.0	0	1	315	0.00	30.086 
23:15	70.8	70.8	70.8	68	59.7	0	1	315	0.00	30.087 
23:20	70.6	70.6	70.6	68	59.5	0	0	---	0.00	30.087 
23:25	70.4	70.4	70.4	69	59.7	0	0	---	0.00	30.087 
23:30	70.4	70.4	70.4	69	59.7	0	1	315	0.00	30.093 
23:35	70.3	70.3	70.3	70	60.0	0	0	---	0.00	30.093 
23:40	70.1	70.1	70.1	70	59.8	0	0	---	0.00	30.093 
23:45	69.9	69.9	69.9	71	60.1	0	0	---	0.00	30.094 
23:50	69.8	69.8	69.8	70	59.6	0	1	315	0.00	30.094 
23:55	69.8	69.8	69.8	70	59.6	0	1	315	0.00	30.094 

CoCoRaHS
IN-AL-39
A2 Web Hosting
Creative Commons License
GoDaddy
Look for:

loaded 2017-10-17 18:12:04 • last modified 2010-11-18 10:43:29
Privacy PolicyDisclaimer
• wx.awcolley.com is powered by PmWiki v.2002016 •
• all content (unless otherwise noted) © 2017 A W Colley